createdAt,value
2022-09-10T00:01:59.794Z,15.50
2022-09-10T00:04:28.057Z,15.50
2022-09-10T00:06:55.675Z,15.50
2022-09-10T00:09:23.468Z,15.50
2022-09-10T00:11:50.104Z,15.50
2022-09-10T00:14:21.886Z,15.40
2022-09-10T00:16:49.702Z,15.50
2022-09-10T00:19:17.044Z,15.50
2022-09-10T00:21:46.900Z,15.52
2022-09-10T00:24:14.124Z,15.60
2022-09-10T00:26:40.761Z,15.60
2022-09-10T00:29:11.594Z,15.60
2022-09-10T00:31:38.877Z,15.60
2022-09-10T00:34:06.236Z,15.60
2022-09-10T00:36:39.940Z,15.60
2022-09-10T00:39:15.576Z,15.64
2022-09-10T00:41:45.635Z,15.60
2022-09-10T00:44:39.831Z,15.64
2022-09-10T00:47:12.000Z,15.70
2022-09-10T00:49:45.152Z,15.68
2022-09-10T00:52:12.887Z,15.64
2022-09-10T00:54:43.040Z,15.60
2022-09-10T00:57:16.913Z,15.50
2022-09-10T00:59:50.009Z,15.40
2022-09-10T01:02:16.672Z,15.50
2022-09-10T01:04:44.004Z,15.50
2022-09-10T01:07:12.312Z,15.50
2022-09-10T01:09:40.377Z,15.50
2022-09-10T01:12:58.057Z,15.52
2022-09-10T01:15:48.053Z,15.60
2022-09-10T01:18:50.974Z,15.50
2022-09-10T01:21:36.989Z,15.42
2022-09-10T01:24:26.149Z,15.44
2022-09-10T01:27:34.185Z,15.50
2022-09-10T01:30:14.728Z,15.40
2022-09-10T01:33:09.764Z,15.40
2022-09-10T01:35:44.560Z,15.40
2022-09-10T01:38:27.296Z,15.40
2022-09-10T01:40:55.206Z,15.30
2022-09-10T01:43:22.951Z,15.26
2022-09-10T01:45:52.241Z,15.20
2022-09-10T01:48:30.442Z,15.20
2022-09-10T01:51:38.534Z,15.10
2022-09-10T01:55:06.412Z,15.10
2022-09-10T01:57:35.774Z,15.08
2022-09-10T02:00:12.313Z,15.04
2022-09-10T02:03:11.972Z,15.00
2022-09-10T02:05:43.534Z,15.00
2022-09-10T02:08:17.091Z,15.00
2022-09-10T02:13:39.116Z,15.06
2022-09-10T02:16:12.511Z,15.10
2022-09-10T02:18:40.145Z,15.10
2022-09-10T02:21:07.197Z,15.10
2022-09-10T02:23:45.160Z,15.10
2022-09-10T02:26:14.395Z,15.10
2022-09-10T02:28:43.602Z,15.12
2022-09-10T02:31:10.468Z,15.20
2022-09-10T02:33:37.001Z,15.20
2022-09-10T02:36:04.012Z,15.20
2022-09-10T02:38:30.425Z,15.24
2022-09-10T02:40:59.220Z,15.20
2022-09-10T02:43:29.652Z,15.20
2022-09-10T02:45:58.184Z,15.30
2022-09-10T02:48:26.515Z,15.30
2022-09-10T02:50:54.356Z,15.30
2022-09-10T02:53:21.075Z,15.30
2022-09-10T02:55:48.565Z,15.30
2022-09-10T02:58:16.716Z,15.20
2022-09-10T03:00:45.321Z,15.20
2022-09-10T03:03:12.477Z,15.20
2022-09-10T03:05:39.073Z,15.20
2022-09-10T03:08:06.601Z,15.20
2022-09-10T03:10:33.273Z,15.24
2022-09-10T03:13:00.396Z,15.30
2022-09-10T03:15:28.315Z,15.30
2022-09-10T03:17:54.929Z,15.30
2022-09-10T03:20:22.987Z,15.32
2022-09-10T03:22:51.444Z,15.30
2022-09-10T03:25:19.563Z,15.30
2022-09-10T03:27:46.116Z,15.30
2022-09-10T03:30:13.074Z,15.30
2022-09-10T03:32:39.700Z,15.30
2022-09-10T03:35:06.544Z,15.30
2022-09-10T03:37:33.035Z,15.30
2022-09-10T03:39:59.536Z,15.30
2022-09-10T03:42:25.952Z,15.30
2022-09-10T03:44:52.402Z,15.20
2022-09-10T03:47:18.813Z,15.20
2022-09-10T03:49:45.263Z,15.12
2022-09-10T03:52:12.783Z,15.10
2022-09-10T03:54:40.120Z,15.14
2022-09-10T03:57:06.553Z,15.10
2022-09-10T03:59:33.020Z,15.10
2022-09-10T04:01:59.512Z,15.10
2022-09-10T04:04:26.317Z,15.10
2022-09-10T04:06:53.786Z,15.10
2022-09-10T04:09:20.550Z,15.10
2022-09-10T04:11:47.033Z,15.10
2022-09-10T04:14:13.776Z,15.10
2022-09-10T04:16:40.323Z,15.10
2022-09-10T04:19:06.820Z,15.10
2022-09-10T04:21:33.268Z,15.20
2022-09-10T04:24:00.594Z,15.10
2022-09-10T04:26:27.023Z,15.10
2022-09-10T04:28:53.633Z,15.10
2022-09-10T04:31:20.429Z,15.10
2022-09-10T04:33:46.972Z,15.10
2022-09-10T04:36:14.259Z,15.10
2022-09-10T04:38:42.091Z,15.20
2022-09-10T04:41:09.660Z,15.20
2022-09-10T04:43:37.912Z,15.22
2022-09-10T04:46:04.472Z,15.28
2022-09-10T04:48:33.071Z,15.28
2022-09-10T04:51:15.776Z,15.30
2022-09-10T04:53:43.185Z,15.20
2022-09-10T04:56:09.868Z,15.20
2022-09-10T04:58:38.852Z,15.20
2022-09-10T05:01:05.750Z,15.20
2022-09-10T05:03:32.336Z,15.24
2022-09-10T05:05:59.002Z,15.30
2022-09-10T05:08:25.421Z,15.30
2022-09-10T05:10:51.903Z,15.34
2022-09-10T05:13:19.026Z,15.40
2022-09-10T05:15:46.053Z,15.40
2022-09-10T05:18:12.596Z,15.40
2022-09-10T05:20:39.143Z,15.40
2022-09-10T05:23:05.648Z,15.40
2022-09-10T05:25:32.708Z,15.30
2022-09-10T05:28:01.077Z,15.30
2022-09-10T05:30:32.569Z,15.30
2022-09-10T05:33:01.328Z,15.30
2022-09-10T05:47:43.957Z,15.54
2022-09-10T05:50:11.317Z,15.90
2022-09-10T05:52:37.945Z,15.98
2022-09-10T05:55:05.238Z,15.90
2022-09-10T05:57:31.993Z,15.80
2022-09-10T06:00:00.207Z,15.70
2022-09-10T06:02:26.967Z,15.60
2022-09-10T06:04:53.510Z,15.60
2022-09-10T06:07:19.965Z,15.60
2022-09-10T06:09:46.429Z,15.56
2022-09-10T06:12:12.862Z,15.50
2022-09-10T06:14:39.463Z,15.50
2022-09-10T06:17:05.957Z,15.50
2022-09-10T06:19:32.418Z,15.50
2022-09-10T06:21:59.071Z,15.50
2022-09-10T06:24:25.798Z,15.50
2022-09-10T06:26:52.293Z,15.50
2022-09-10T06:29:19.556Z,15.50
2022-09-10T06:31:47.553Z,15.50
2022-09-10T06:34:15.838Z,15.50
2022-09-10T06:36:43.658Z,15.44
2022-09-10T06:39:10.891Z,15.40
2022-09-10T06:41:37.488Z,15.40
2022-09-10T06:44:04.044Z,15.40
2022-09-10T06:49:18.766Z,15.38
2022-09-10T06:51:45.257Z,15.30
2022-09-10T06:54:12.749Z,15.30
2022-09-10T06:56:39.329Z,15.28
2022-09-10T06:59:05.823Z,15.20
2022-09-10T07:01:33.006Z,15.10
2022-09-10T07:04:01.762Z,15.02
2022-09-10T07:06:33.708Z,15.00
2022-09-10T07:09:00.976Z,14.90
2022-09-10T07:11:30.300Z,14.90
2022-09-10T07:13:56.786Z,14.80
2022-09-10T07:16:26.693Z,14.74
2022-09-10T07:18:57.505Z,14.70
2022-09-10T07:21:27.437Z,14.70
2022-09-10T07:24:01.196Z,14.70
2022-09-10T07:26:28.678Z,14.70
2022-09-10T07:28:56.780Z,14.70
2022-09-10T07:31:28.185Z,14.70
2022-09-10T07:33:57.602Z,14.70
2022-09-10T07:36:25.024Z,14.80
2022-09-10T07:38:54.701Z,14.80
2022-09-10T07:41:21.949Z,14.80
2022-09-10T07:43:52.201Z,14.80
2022-09-10T07:46:21.111Z,14.80
2022-09-10T07:48:52.460Z,14.80
2022-09-10T07:51:19.405Z,14.80
2022-09-10T07:53:50.566Z,14.82
2022-09-10T07:56:17.562Z,14.90
2022-09-10T07:58:44.857Z,15.00
2022-09-10T08:01:12.906Z,15.00
2022-09-10T08:03:40.873Z,15.10
2022-09-10T08:06:09.476Z,15.10
2022-09-10T08:08:39.787Z,15.10
2022-09-10T08:11:12.719Z,15.00
2022-09-10T08:13:41.668Z,14.90
2022-09-10T08:16:15.216Z,14.90
2022-09-10T08:18:43.665Z,14.90
2022-09-10T08:21:10.857Z,14.90
2022-09-10T08:23:39.699Z,14.90
2022-09-10T08:26:08.209Z,14.90
2022-09-10T08:28:38.580Z,14.90
2022-09-10T08:31:08.994Z,14.90
2022-09-10T08:33:38.206Z,15.00
2022-09-10T08:36:07.888Z,15.00
2022-09-10T08:38:40.131Z,15.00
2022-09-10T08:41:32.601Z,15.10
2022-09-10T08:44:05.449Z,15.10
2022-09-10T08:46:43.193Z,15.10
2022-09-10T08:49:34.085Z,15.20
2022-09-10T08:52:21.310Z,15.30
2022-09-10T08:54:56.979Z,15.40
2022-09-10T08:58:11.460Z,15.50
2022-09-10T09:00:41.678Z,15.60
2022-09-10T09:03:33.841Z,15.70
2022-09-10T09:06:09.580Z,15.70
2022-09-10T09:08:48.235Z,15.80
2022-09-10T09:11:59.599Z,15.80
2022-09-10T09:15:09.106Z,15.90
2022-09-10T09:18:20.418Z,16.00
2022-09-10T09:20:54.501Z,16.10
2022-09-10T09:24:02.804Z,16.10
2022-09-10T09:26:38.228Z,16.16
2022-09-10T09:29:19.099Z,16.20
2022-09-10T09:32:00.496Z,16.20
2022-09-10T09:34:44.198Z,16.10
2022-09-10T09:37:29.415Z,16.10
2022-09-10T09:40:33.897Z,16.10
2022-09-10T09:43:31.746Z,16.20
2022-09-10T09:45:59.888Z,16.24
2022-09-10T09:48:38.837Z,16.30
2022-09-10T09:51:10.957Z,16.40
2022-09-10T09:53:38.022Z,16.50
2022-09-10T09:56:13.170Z,16.60
2022-09-10T09:58:49.343Z,16.64
2022-09-10T10:01:21.341Z,16.70
2022-09-10T10:04:02.945Z,16.70
2022-09-10T10:06:33.220Z,16.70
2022-09-10T10:09:20.966Z,16.80
2022-09-10T10:11:52.514Z,16.80
2022-09-10T10:14:20.087Z,16.80
2022-09-10T10:16:56.213Z,16.80
2022-09-10T10:19:38.558Z,16.72
2022-09-10T10:22:32.501Z,16.70
2022-09-10T10:25:02.199Z,16.60
2022-09-10T10:27:34.111Z,16.70
2022-09-10T10:30:22.669Z,16.70
2022-09-10T10:32:56.997Z,16.80
2022-09-10T10:35:46.643Z,16.90
2022-09-10T10:38:40.535Z,16.94
2022-09-10T10:41:30.188Z,16.90
2022-09-10T10:44:23.240Z,16.98
2022-09-10T10:47:18.755Z,17.00
2022-09-10T10:50:06.123Z,17.10
2022-09-10T10:52:46.876Z,17.10
2022-09-10T10:55:38.834Z,17.10
2022-09-10T10:58:29.492Z,17.10
2022-09-10T11:01:24.805Z,17.10
2022-09-10T11:04:26.469Z,17.00
2022-09-10T11:07:11.271Z,16.92
2022-09-10T11:09:51.898Z,16.90
2022-09-10T11:12:25.397Z,16.80
2022-09-10T11:15:00.955Z,16.80
2022-09-10T11:17:39.681Z,16.80
2022-09-10T11:20:29.394Z,16.80
2022-09-10T11:23:39.048Z,16.80
2022-09-10T11:26:21.532Z,16.80
2022-09-10T11:29:28.328Z,16.78
2022-09-10T11:32:06.272Z,16.70
2022-09-10T11:34:51.849Z,16.70
2022-09-10T11:37:46.473Z,16.70
2022-09-10T11:40:40.402Z,16.70
2022-09-10T11:43:14.675Z,16.70
2022-09-10T11:46:00.190Z,16.70
2022-09-10T11:48:48.906Z,16.60
2022-09-10T11:51:26.482Z,16.60
2022-09-10T11:53:57.774Z,16.60
2022-09-10T11:56:59.948Z,16.60
2022-09-10T12:00:15.633Z,16.60
2022-09-10T12:03:15.538Z,16.70
2022-09-10T12:06:23.271Z,16.70
2022-09-10T12:09:08.426Z,16.70
2022-09-10T12:11:47.830Z,16.80
2022-09-10T12:14:18.585Z,16.80
2022-09-10T12:17:03.989Z,16.80
2022-09-10T12:19:50.468Z,16.90
2022-09-10T12:22:36.810Z,17.00
2022-09-10T12:25:07.579Z,17.00
2022-09-10T12:27:47.612Z,17.00
2022-09-10T12:30:35.139Z,17.08
2022-09-10T12:33:22.139Z,17.10
2022-09-10T12:35:50.672Z,17.00
2022-09-10T12:38:45.657Z,17.00
2022-09-10T12:41:36.513Z,16.90
2022-09-10T12:44:36.439Z,16.90
2022-09-10T12:47:12.027Z,16.90
2022-09-10T12:49:51.672Z,16.80
2022-09-10T12:52:50.832Z,16.70
2022-09-10T12:55:57.777Z,16.60
2022-09-10T12:58:48.862Z,16.60
2022-09-10T13:01:46.388Z,16.60
2022-09-10T13:04:36.916Z,16.60
2022-09-10T13:07:20.959Z,16.60
2022-09-10T13:10:00.919Z,16.60
2022-09-10T13:12:29.389Z,16.70
2022-09-10T13:15:00.612Z,16.70
2022-09-10T13:17:51.214Z,16.80
2022-09-10T13:20:23.398Z,16.90
2022-09-10T13:23:21.423Z,16.90
2022-09-10T13:25:51.000Z,16.90
2022-09-10T13:28:29.955Z,17.00
2022-09-10T13:31:21.757Z,17.06
2022-09-10T13:34:11.251Z,17.18
2022-09-10T13:37:04.938Z,17.20
2022-09-10T13:40:29.082Z,17.30
2022-09-10T13:43:15.151Z,17.30
2022-09-10T13:45:51.846Z,17.30
2022-09-10T13:48:27.525Z,17.30
2022-09-10T13:51:15.425Z,17.30
2022-09-10T13:53:47.020Z,17.30
2022-09-10T13:56:26.698Z,17.30
2022-09-10T13:59:00.801Z,17.30
2022-09-10T14:01:56.368Z,17.26
2022-09-10T14:04:31.513Z,17.20
2022-09-10T14:07:13.163Z,17.18
2022-09-10T14:09:51.692Z,17.02
2022-09-10T14:12:23.528Z,17.00
2022-09-10T14:14:56.789Z,16.90
2022-09-10T14:17:31.429Z,16.90
2022-09-10T14:20:01.487Z,16.80
2022-09-10T14:22:32.095Z,16.90
2022-09-10T14:25:04.318Z,16.92
2022-09-10T14:27:34.887Z,17.00
2022-09-10T14:30:29.884Z,17.00
2022-09-10T14:33:35.884Z,17.00
2022-09-10T14:36:34.335Z,17.00
2022-09-10T14:39:16.836Z,17.00
2022-09-10T14:41:45.083Z,16.96
2022-09-10T14:44:14.354Z,16.90
2022-09-10T14:46:57.296Z,16.90
2022-09-10T14:49:31.349Z,16.90
2022-09-10T14:51:59.022Z,16.90
2022-09-10T14:54:32.044Z,16.80
2022-09-10T14:57:04.017Z,16.80
2022-09-10T14:59:34.596Z,16.80
2022-09-10T15:02:06.098Z,16.80
2022-09-10T15:04:32.541Z,16.80
2022-09-10T15:07:00.981Z,16.74
2022-09-10T15:09:29.743Z,16.70
2022-09-10T15:12:23.977Z,16.70
2022-09-10T15:14:51.825Z,16.60
2022-09-10T15:17:19.064Z,16.60
2022-09-10T15:19:49.994Z,16.58
2022-09-10T15:22:29.536Z,16.50
2022-09-10T15:25:12.295Z,16.50
2022-09-10T15:27:39.244Z,16.50
2022-09-10T15:30:11.169Z,16.44
2022-09-10T15:32:37.822Z,16.40
2022-09-10T15:35:05.339Z,16.40
2022-09-10T15:37:31.879Z,16.40
2022-09-10T15:39:58.637Z,16.30
2022-09-10T15:42:25.239Z,16.30
2022-09-10T15:44:51.695Z,16.30
2022-09-10T15:47:18.236Z,16.28
2022-09-10T15:49:44.686Z,16.24
2022-09-10T15:52:11.142Z,16.24
2022-09-10T15:54:37.710Z,16.22
2022-09-10T15:57:04.399Z,16.20
2022-09-10T15:59:30.928Z,16.20
2022-09-10T16:01:57.567Z,16.20
2022-09-10T16:04:25.031Z,16.10
2022-09-10T16:06:51.470Z,16.10
2022-09-10T16:09:17.960Z,16.10
2022-09-10T16:11:45.408Z,16.04
2022-09-10T16:14:15.833Z,16.02
2022-09-10T16:16:42.387Z,16.00
2022-09-10T16:19:12.978Z,16.02
2022-09-10T16:21:39.456Z,16.00
2022-09-10T16:24:07.530Z,16.00
2022-09-10T16:26:38.911Z,15.94
2022-09-10T16:29:12.851Z,15.92
2022-09-10T16:31:39.764Z,15.90
2022-09-10T16:34:11.640Z,15.90
2022-09-10T16:36:39.325Z,15.80
2022-09-10T16:39:12.468Z,15.70
2022-09-10T16:41:45.358Z,15.66
2022-09-10T16:44:14.816Z,15.60
2022-09-10T16:46:42.340Z,15.50
2022-09-10T16:49:14.407Z,15.50
2022-09-10T16:51:42.997Z,15.44
2022-09-10T16:54:11.206Z,15.40
2022-09-10T16:56:43.996Z,15.40
2022-09-10T16:59:16.231Z,15.40
2022-09-10T17:01:44.871Z,15.40
2022-09-10T17:04:23.426Z,15.40
2022-09-10T17:06:52.714Z,15.40
2022-09-10T17:09:19.336Z,15.30
2022-09-10T17:11:45.954Z,15.30
2022-09-10T17:14:12.412Z,15.30
2022-09-10T17:16:41.621Z,15.30
2022-09-10T17:19:15.451Z,15.30
2022-09-10T17:21:47.372Z,15.30
2022-09-10T17:24:14.124Z,15.30
2022-09-10T17:26:41.572Z,15.22
2022-09-10T17:29:14.745Z,15.30
2022-09-10T17:31:42.557Z,15.30
2022-09-10T17:34:13.156Z,15.28
2022-09-10T17:36:42.508Z,15.20
2022-09-10T17:39:09.686Z,15.20
2022-09-10T17:41:37.312Z,15.20
2022-09-10T17:44:04.048Z,15.20
2022-09-10T17:46:31.268Z,15.20
2022-09-10T17:49:02.146Z,15.20
2022-09-10T17:51:32.594Z,15.20
2022-09-10T17:53:59.153Z,15.20
2022-09-10T17:56:26.859Z,15.20
2022-09-10T17:59:03.478Z,15.20
2022-09-10T18:01:38.934Z,15.20
2022-09-10T18:04:08.289Z,15.20
2022-09-10T18:06:36.430Z,15.20
2022-09-10T18:09:04.822Z,15.20
2022-09-10T18:11:39.032Z,15.20
2022-09-10T18:14:07.143Z,15.26
2022-09-10T18:16:36.412Z,15.30
2022-09-10T18:19:14.287Z,15.30
2022-09-10T18:21:43.716Z,15.30
2022-09-10T18:24:22.545Z,15.30
2022-09-10T18:26:51.878Z,15.30
2022-09-10T18:29:25.186Z,15.30
2022-09-10T18:31:58.313Z,15.30
2022-09-10T18:34:28.248Z,15.24
2022-09-10T18:36:58.607Z,15.20
2022-09-10T18:39:28.019Z,15.20
2022-09-10T18:41:55.272Z,15.10
2022-09-10T18:44:25.905Z,15.10
2022-09-10T18:46:53.515Z,15.00
2022-09-10T18:49:24.334Z,15.00
2022-09-10T18:51:53.409Z,15.00
2022-09-10T18:54:22.219Z,15.00
2022-09-10T18:56:49.903Z,15.02
2022-09-10T18:59:22.134Z,15.00
2022-09-10T19:01:51.998Z,15.00
2022-09-10T19:04:26.791Z,14.90
2022-09-10T19:06:54.183Z,14.90
2022-09-10T19:09:29.944Z,14.90
2022-09-10T19:11:59.070Z,14.90
2022-09-10T19:14:31.875Z,14.90
2022-09-10T19:17:00.888Z,14.90
2022-09-10T19:19:31.716Z,15.00
2022-09-10T19:22:03.638Z,15.00
2022-09-10T19:24:54.138Z,15.00
2022-09-10T19:27:17.509Z,15.00
2022-09-10T19:29:44.409Z,15.00
2022-09-10T19:32:11.705Z,15.00
2022-09-10T19:34:38.937Z,15.00
2022-09-10T19:37:07.052Z,15.00
2022-09-10T19:39:33.643Z,15.00
2022-09-10T19:42:00.534Z,15.02
2022-09-10T19:44:27.418Z,15.10
2022-09-10T19:46:53.842Z,15.10
2022-09-10T19:49:20.282Z,15.02
2022-09-10T19:51:46.745Z,15.00
2022-09-10T19:54:14.126Z,15.00
2022-09-10T19:56:42.578Z,15.00
2022-09-10T19:59:09.912Z,15.00
2022-09-10T20:01:40.306Z,15.00
2022-09-10T20:04:10.684Z,15.00
2022-09-10T20:06:38.775Z,14.90
2022-09-10T20:09:08.570Z,14.92
2022-09-10T20:11:35.645Z,14.90
2022-09-10T20:14:14.358Z,14.90
2022-09-10T20:16:44.274Z,14.90
2022-09-10T20:19:14.503Z,14.80
2022-09-10T20:21:42.259Z,14.80
2022-09-10T20:24:10.130Z,14.80
2022-09-10T20:26:40.101Z,14.78
2022-09-10T20:29:11.346Z,14.70
2022-09-10T20:31:41.225Z,14.70
2022-09-10T20:34:13.725Z,14.70
2022-09-10T20:36:42.355Z,14.78
2022-09-10T20:39:17.240Z,14.70
2022-09-10T20:41:45.546Z,14.70
2022-09-10T20:44:15.177Z,14.70
2022-09-10T20:46:43.224Z,14.70
2022-09-10T20:49:13.081Z,14.70
2022-09-10T20:51:40.770Z,14.68
2022-09-10T20:54:12.961Z,14.62
2022-09-10T20:56:40.495Z,14.60
2022-09-10T20:59:07.294Z,14.60
2022-09-10T21:01:33.925Z,14.60
2022-09-10T21:04:01.458Z,14.70
2022-09-10T21:06:31.585Z,14.70
2022-09-10T21:08:59.444Z,14.66
2022-09-10T21:11:30.709Z,14.60
2022-09-10T21:14:00.130Z,14.60
2022-09-10T21:16:33.202Z,14.60
2022-09-10T21:19:07.806Z,14.60
2022-09-10T21:21:35.954Z,14.60
2022-09-10T21:24:18.938Z,14.60
2022-09-10T21:26:45.876Z,14.60
2022-09-10T21:29:16.950Z,14.56
2022-09-10T21:31:45.245Z,14.50
2022-09-10T21:34:12.773Z,14.46
2022-09-10T21:36:41.176Z,14.40
2022-09-10T21:39:17.392Z,14.40
2022-09-10T21:41:50.080Z,14.30
2022-09-10T21:44:23.150Z,14.30
2022-09-10T21:46:50.589Z,14.30
2022-09-10T21:49:18.411Z,14.26
2022-09-10T21:51:45.312Z,14.20
2022-09-10T21:54:20.619Z,14.20
2022-09-10T21:56:49.065Z,14.20
2022-09-10T21:59:16.119Z,14.18
2022-09-10T22:01:49.924Z,14.16
2022-09-10T22:04:22.181Z,14.16
2022-09-10T22:06:49.245Z,14.10
2022-09-10T22:09:16.863Z,14.10
2022-09-10T22:11:47.224Z,14.10
2022-09-10T22:14:18.835Z,14.00
2022-09-10T22:16:45.703Z,13.98
2022-09-10T22:19:19.635Z,13.92
2022-09-10T22:21:46.333Z,13.90
2022-09-10T22:24:15.087Z,13.98
2022-09-10T22:26:44.544Z,13.94
2022-09-10T22:29:12.591Z,13.90
2022-09-10T22:31:39.169Z,13.90
2022-09-10T22:34:15.885Z,13.90
2022-09-10T22:36:45.120Z,13.90
2022-09-10T22:39:21.051Z,13.80
2022-09-10T22:41:50.056Z,13.80
2022-09-10T22:44:20.344Z,13.90
2022-09-10T22:46:47.645Z,13.90
2022-09-10T22:49:16.112Z,13.90
2022-09-10T22:51:43.285Z,13.98
2022-09-10T22:54:10.816Z,14.00
2022-09-10T22:56:37.341Z,14.00
2022-09-10T22:59:04.585Z,14.00
2022-09-10T23:01:36.636Z,14.00
2022-09-10T23:04:05.836Z,14.00
2022-09-10T23:06:34.557Z,14.00
2022-09-10T23:09:17.817Z,14.00
2022-09-10T23:11:45.498Z,14.00
2022-09-10T23:14:22.137Z,14.00
2022-09-10T23:16:50.834Z,13.92
2022-09-10T23:19:26.318Z,13.90
2022-09-10T23:21:55.112Z,13.90
2022-09-10T23:24:24.483Z,13.90
2022-09-10T23:26:51.593Z,13.90
2022-09-10T23:29:18.296Z,13.90
2022-09-10T23:31:48.341Z,13.82
2022-09-10T23:34:18.595Z,13.86
2022-09-10T23:36:48.163Z,13.84
2022-09-10T23:39:21.501Z,13.90
2022-09-10T23:41:49.939Z,13.90
2022-09-10T23:44:17.349Z,13.90
2022-09-10T23:46:44.725Z,13.88
2022-09-10T23:49:12.928Z,13.80
2022-09-10T23:51:39.888Z,13.90
2022-09-10T23:54:06.828Z,13.90
2022-09-10T23:56:33.316Z,13.90
2022-09-10T23:59:00.048Z,13.90
